Time;durP1;ratioP1;P1;durP2;ratioP2;P2;SDS_P1;SDS_P2;PMS_P1;PMS_P2;Temp;Humidity;BMP_temperature;BMP_pressure;BME280_temperature;BME280_humidity;BME280_pressure;Samples;Min_cycle;Max_cycle;Signal;HPM_P1;HPM_P2
2022/01/02 00:03:01;;;;;;;575.83;28.37;;;;;4.40;96957.00;;;;8340852;28;20311;-77
2022/01/02 00:07:07;;;;;;;82.80;9.33;;;;;4.60;96967.00;;;;8338586;28;20226;-76
2022/01/02 00:11:12;;;;;;;489.80;25.83;;;;;4.70;96959.00;;;;8342238;28;20235;-77
2022/01/02 00:15:19;;;;;;;189.73;12.70;;;;;4.80;96961.00;;;;8335022;28;20250;-77
2022/01/02 00:19:29;;;;;;;127.20;12.20;;;;;4.80;96964.00;;;;8344096;28;20335;-77
2022/01/02 00:23:47;;;;;;;199.50;12.83;;;;;4.80;96961.00;;;;8346099;28;20226;-76
2022/01/02 00:27:52;;;;;;;384.77;20.40;;;;;4.70;96955.00;;;;8341154;28;20247;-76
2022/01/02 00:31:57;;;;;;;149.17;10.03;;;;;4.70;96948.00;;;;8347316;28;22116;-75
2022/01/02 00:36:04;;;;;;;45.53;8.57;;;;;4.70;96952.00;;;;8346794;28;20315;-76
2022/01/02 00:40:08;;;;;;;42.57;9.00;;;;;4.50;96944.00;;;;8332187;28;20683;-76
2022/01/02 00:44:22;;;;;;;140.13;12.97;;;;;4.30;96933.00;;;;8347402;28;20249;-76
2022/01/02 00:48:29;;;;;;;66.30;11.47;;;;;4.20;96928.00;;;;8343847;28;20312;-75
2022/01/02 00:52:36;;;;;;;123.93;13.40;;;;;4.10;96922.00;;;;8344862;28;20342;-75
2022/01/02 00:56:44;;;;;;;57.00;10.43;;;;;3.90;96928.00;;;;8338923;28;20258;-75
2022/01/02 01:00:50;;;;;;;165.23;15.43;;;;;3.80;96923.00;;;;8345684;28;20312;-75
2022/01/02 01:04:59;;;;;;;163.07;12.63;;;;;3.70;96913.00;;;;8296965;28;1245265;-76
2022/01/02 01:09:05;;;;;;;164.10;13.23;;;;;3.70;96919.00;;;;8344060;28;20485;-76
2022/01/02 01:13:11;;;;;;;175.67;13.67;;;;;3.70;96917.00;;;;8341739;28;20334;-75
2022/01/02 01:17:16;;;;;;;59.30;9.37;;;;;3.80;96904.00;;;;8347906;28;20664;-76
2022/01/02 01:21:20;;;;;;;145.80;13.17;;;;;3.90;96904.00;;;;8347061;28;20306;-75
2022/01/02 01:25:24;;;;;;;113.43;12.57;;;;;4.00;96906.00;;;;8346040;28;20307;-75
2022/01/02 01:29:33;;;;;;;141.97;12.43;;;;;4.00;96896.00;;;;8348677;28;20268;-75
2022/01/02 01:33:37;;;;;;;83.10;10.70;;;;;4.10;96894.00;;;;8344565;28;20263;-76
2022/01/02 01:37:41;;;;;;;181.97;14.60;;;;;4.20;96889.00;;;;8339395;28;20300;-76
2022/01/02 01:41:52;;;;;;;214.67;15.20;;;;;4.10;96877.00;;;;8339003;28;20290;-75
2022/01/02 01:45:55;;;;;;;197.57;14.90;;;;;4.00;96867.00;;;;8342220;28;20737;-76
2022/01/02 01:49:58;;;;;;;51.33;8.63;;;;;4.20;96868.00;;;;8348381;28;20339;-75
2022/01/02 01:54:03;;;;;;;67.87;9.10;;;;;4.40;96870.00;;;;8340408;28;20232;-76
2022/01/02 01:58:07;;;;;;;429.70;22.23;;;;;4.50;96870.00;;;;8338127;28;20311;-74
2022/01/02 02:02:10;;;;;;;604.43;34.67;;;;;4.50;96877.00;;;;8344812;28;20308;-75
2022/01/02 02:06:14;;;;;;;135.87;12.77;;;;;4.60;96868.00;;;;8336993;28;20671;-75
2022/01/02 02:10:25;;;;;;;49.37;9.20;;;;;4.70;96876.00;;;;8345721;28;20327;-75
2022/01/02 02:14:28;;;;;;;145.37;14.17;;;;;4.90;96875.00;;;;8344563;28;20255;-75
2022/01/02 02:18:31;;;;;;;98.50;10.77;;;;;5.10;96848.00;;;;8346974;28;20663;-75
2022/01/02 02:22:39;;;;;;;161.73;11.40;;;;;5.10;96844.00;;;;8339924;28;20294;-76
2022/01/02 02:26:44;;;;;;;106.27;9.93;;;;;5.00;96840.00;;;;8340570;28;20300;-76
2022/01/02 02:30:48;;;;;;;38.03;8.37;;;;;5.00;96842.00;;;;8332966;28;20666;-75
2022/01/02 02:34:52;;;;;;;96.87;11.50;;;;;4.90;96840.00;;;;8341591;28;21083;-76
2022/01/02 02:38:56;;;;;;;195.80;14.77;;;;;4.90;96838.00;;;;8342819;28;20307;-75
2022/01/02 02:43:04;;;;;;;184.77;13.93;;;;;4.90;96848.00;;;;8331645;28;20268;-75
2022/01/02 02:51:35;;;;;;;94.53;11.50;;;;;4.70;96845.00;;;;8344295;28;20315;-75
2022/01/02 02:55:46;;;;;;;142.07;13.40;;;;;4.70;96841.00;;;;8343890;28;20267;-76
2022/01/02 02:59:49;;;;;;;167.83;14.27;;;;;4.80;96837.00;;;;8345160;28;20248;-77
2022/01/02 03:03:53;;;;;;;229.83;15.47;;;;;4.80;96832.00;;;;8351096;22;20319;-75
2022/01/02 03:07:56;;;;;;;255.10;17.13;;;;;4.70;96826.00;;;;8319874;28;20249;-76
2022/01/02 03:12:01;;;;;;;98.20;11.37;;;;;4.70;96818.00;;;;8313284;28;20259;-75
2022/01/02 03:16:04;;;;;;;121.53;11.43;;;;;4.80;96802.00;;;;8306607;28;20777;-77
2022/01/02 03:20:07;;;;;;;266.13;17.37;;;;;4.70;96808.00;;;;8309403;28;20233;-75
2022/01/02 03:24:11;;;;;;;225.57;14.13;;;;;4.60;96810.00;;;;8323744;28;21023;-76
2022/01/02 03:28:15;;;;;;;134.67;11.50;;;;;4.60;96807.00;;;;8318421;28;20311;-75
2022/01/02 03:32:18;;;;;;;134.93;11.00;;;;;4.60;96800.00;;;;8305123;28;20613;-76
2022/01/02 03:36:22;;;;;;;56.83;8.50;;;;;4.70;96796.00;;;;8306583;28;20328;-76
2022/01/02 03:40:25;;;;;;;74.57;9.23;;;;;4.80;96784.00;;;;8304169;28;20241;-76
2022/01/02 03:44:30;;;;;;;40.90;8.03;;;;;4.80;96778.00;;;;8302677;28;20679;-76
2022/01/02 03:48:34;;;;;;;268.43;14.93;;;;;4.90;96767.00;;;;8307713;28;20230;-76
2022/01/02 03:52:40;;;;;;;148.97;12.77;;;;;4.70;96758.00;;;;8312023;28;20292;-77
2022/01/02 03:56:43;;;;;;;101.73;9.57;;;;;4.70;96759.00;;;;8309523;28;20690;-76
2022/01/02 04:00:48;;;;;;;189.17;13.33;;;;;4.60;96745.00;;;;8323618;28;20232;-75
2022/01/02 04:04:51;;;;;;;205.53;13.57;;;;;4.50;96762.00;;;;8312739;28;20259;-74
2022/01/02 04:08:55;;;;;;;296.17;15.77;;;;;4.40;96762.00;;;;8304008;28;20300;-74
2022/01/02 04:12:58;;;;;;;177.43;12.10;;;;;4.40;96760.00;;;;8318143;28;20262;-75
2022/01/02 04:17:02;;;;;;;218.17;13.13;;;;;4.30;96751.00;;;;8313645;28;20339;-74
2022/01/02 04:21:05;;;;;;;109.00;9.30;;;;;4.30;96746.00;;;;8316775;28;20229;-74
2022/01/02 04:25:09;;;;;;;136.80;10.57;;;;;4.20;96747.00;;;;8319860;28;20320;-75
2022/01/02 04:29:13;;;;;;;220.03;13.97;;;;;4.20;96730.00;;;;8318970;28;20268;-75
2022/01/02 04:33:17;;;;;;;138.93;10.83;;;;;4.10;96719.00;;;;8321416;28;20244;-76
2022/01/02 04:37:20;;;;;;;199.10;13.80;;;;;4.10;96723.00;;;;8317270;28;20775;-75
2022/01/02 04:41:24;;;;;;;230.20;15.60;;;;;3.90;96729.00;;;;8319252;28;20307;-74
2022/01/02 04:45:27;;;;;;;167.30;12.77;;;;;3.80;96729.00;;;;8315604;28;20229;-76
2022/01/02 04:49:32;;;;;;;195.53;12.70;;;;;3.80;96719.00;;;;8318649;28;20274;-74
2022/01/02 04:53:37;;;;;;;75.53;8.83;;;;;3.80;96713.00;;;;8315540;28;20235;-75
2022/01/02 04:57:40;;;;;;;79.13;8.10;;;;;3.80;96708.00;;;;8319145;28;20241;-74
2022/01/02 05:01:43;;;;;;;418.53;21.23;;;;;3.70;96702.00;;;;8315099;28;21568;-76
2022/01/02 05:05:48;;;;;;;237.50;14.10;;;;;3.70;96707.00;;;;8311540;28;20229;-73
2022/01/02 05:09:51;;;;;;;122.63;10.53;;;;;3.60;96710.00;;;;8304890;28;20255;-74
2022/01/02 05:13:54;;;;;;;62.57;7.40;;;;;3.60;96710.00;;;;8309952;28;20256;-75
2022/01/02 05:17:58;;;;;;;82.37;8.83;;;;;3.60;96720.00;;;;8310594;28;20319;-75
2022/01/02 05:22:02;;;;;;;87.03;9.73;;;;;3.60;96710.00;;;;8307435;28;20360;-74
2022/01/02 05:26:06;;;;;;;134.57;11.27;;;;;3.50;96703.00;;;;8311835;28;20339;-73
2022/01/02 05:30:11;;;;;;;49.97;7.17;;;;;3.40;96699.00;;;;8309260;28;20259;-74
2022/01/02 05:34:14;;;;;;;58.57;7.93;;;;;3.30;96701.00;;;;8313322;28;20331;-75
2022/01/02 05:38:19;;;;;;;73.07;7.67;;;;;3.20;96695.00;;;;8301406;28;21003;-75
2022/01/02 05:42:22;;;;;;;172.13;11.40;;;;;3.10;96681.00;;;;8307001;28;20264;-74
2022/01/02 05:46:26;;;;;;;31.73;6.07;;;;;3.00;96685.00;;;;8309764;28;20631;-74
2022/01/02 05:50:30;;;;;;;125.47;9.07;;;;;2.90;96687.00;;;;8312263;28;20251;-75
2022/01/02 05:54:34;;;;;;;224.37;12.97;;;;;2.90;96682.00;;;;8308602;28;20289;-77
2022/01/02 05:58:37;;;;;;;55.23;6.73;;;;;2.90;96674.00;;;;8313447;28;20255;-77
2022/01/02 06:02:41;;;;;;;284.53;16.07;;;;;2.90;96677.00;;;;8307252;28;20324;-75
2022/01/02 06:06:44;;;;;;;192.43;12.83;;;;;2.80;96677.00;;;;8319823;28;20582;-75
2022/01/02 06:10:49;;;;;;;127.50;11.73;;;;;2.90;96683.00;;;;8316975;28;20255;-74
2022/01/02 06:14:52;;;;;;;130.00;9.87;;;;;3.00;96684.00;;;;8301384;28;20321;-76
2022/01/02 06:18:57;;;;;;;153.23;12.10;;;;;3.00;96693.00;;;;8304433;28;20256;-75
2022/01/02 06:23:01;;;;;;;33.13;7.10;;;;;3.00;96681.00;;;;8306865;28;20322;-74
2022/01/02 06:27:06;;;;;;;51.03;6.93;;;;;3.00;96682.00;;;;8311785;28;20232;-74
2022/01/02 06:31:11;;;;;;;48.00;7.10;;;;;2.90;96675.00;;;;8311046;28;20772;-75
2022/01/02 06:35:14;;;;;;;38.63;5.90;;;;;2.90;96675.00;;;;8304284;28;20236;-76
2022/01/02 06:39:17;;;;;;;100.30;9.50;;;;;3.00;96676.00;;;;8306166;28;20252;-73
2022/01/02 06:43:22;;;;;;;99.07;9.43;;;;;2.90;96672.00;;;;8308773;28;20268;-74
2022/01/02 06:47:25;;;;;;;65.50;6.67;;;;;2.90;96672.00;;;;8306256;28;20322;-73
2022/01/02 06:51:29;;;;;;;72.63;8.00;;;;;2.90;96666.00;;;;8295559;28;20328;-74
2022/01/02 06:55:32;;;;;;;60.77;7.80;;;;;2.90;96656.00;;;;8311002;28;20330;-73
2022/01/02 06:59:36;;;;;;;70.63;8.37;;;;;2.80;96661.00;;;;8309635;28;20567;-74
2022/01/02 07:03:40;;;;;;;62.20;6.80;;;;;2.80;96657.00;;;;8304385;28;20230;-73
2022/01/02 07:07:44;;;;;;;88.93;9.07;;;;;2.90;96647.00;;;;8301819;28;20692;-74
2022/01/02 07:11:47;;;;;;;98.73;8.80;;;;;2.90;96654.00;;;;8310744;28;20224;-73
2022/01/02 07:15:51;;;;;;;53.80;6.50;;;;;2.90;96647.00;;;;8305521;28;20331;-73
2022/01/02 07:19:55;;;;;;;37.00;6.10;;;;;3.00;96624.00;;;;8309128;28;20232;-73
2022/01/02 07:23:58;;;;;;;177.10;10.90;;;;;3.10;96604.00;;;;8305298;28;20332;-73
2022/01/02 07:28:02;;;;;;;116.73;9.40;;;;;3.10;96606.00;;;;8306135;28;20259;-72
2022/01/02 07:32:07;;;;;;;58.30;6.83;;;;;3.10;96604.00;;;;8308293;28;20313;-72
2022/01/02 07:36:10;;;;;;;142.70;9.97;;;;;3.10;96606.00;;;;8309061;28;20697;-75
2022/01/02 07:40:13;;;;;;;97.50;9.10;;;;;3.20;96596.00;;;;8301428;28;20328;-73
2022/01/02 07:44:16;;;;;;;87.30;8.13;;;;;3.40;96586.00;;;;8304298;28;20316;-74
2022/01/02 07:48:21;;;;;;;80.93;9.13;;;;;3.50;96600.00;;;;8294964;28;20232;-75
2022/01/02 07:52:24;;;;;;;135.30;11.57;;;;;3.50;96609.00;;;;8300667;28;20226;-74
2022/01/02 07:56:28;;;;;;;40.73;7.07;;;;;3.60;96610.00;;;;8299661;28;20277;-73
2022/01/02 08:00:31;;;;;;;30.67;7.87;;;;;3.70;96608.00;;;;8305005;28;20248;-71
2022/01/02 08:04:36;;;;;;;19.93;7.70;;;;;3.80;96613.00;;;;8308897;28;20335;-75
2022/01/02 08:08:39;;;;;;;18.43;7.20;;;;;4.00;96624.00;;;;8304606;28;20227;-74
2022/01/02 08:12:42;;;;;;;23.03;7.80;;;;;4.20;96615.00;;;;8299226;28;20253;-74
2022/01/02 08:16:45;;;;;;;17.47;7.30;;;;;4.30;96612.00;;;;8301857;28;20249;-74
2022/01/02 08:20:50;;;;;;;22.23;9.07;;;;;4.40;96617.00;;;;8302501;28;20620;-74
2022/01/02 08:24:54;;;;;;;17.47;7.90;;;;;4.50;96607.00;;;;8298441;28;20226;-75
2022/01/02 08:29:00;;;;;;;43.50;8.90;;;;;4.50;96612.00;;;;8290859;28;20235;-75
2022/01/02 08:33:03;;;;;;;35.23;8.07;;;;;4.50;96610.00;;;;8304050;28;20256;-74
2022/01/02 08:37:08;;;;;;;18.80;7.97;;;;;4.50;96611.00;;;;8309935;28;20344;-75
2022/01/02 08:41:11;;;;;;;16.80;7.30;;;;;4.60;96620.00;;;;8312135;28;20266;-74
2022/01/02 08:45:15;;;;;;;409.17;36.27;;;;;4.70;96620.00;;;;8308213;28;20885;-75
2022/01/02 08:49:18;;;;;;;19.83;8.27;;;;;4.90;96606.00;;;;8305542;28;20225;-75
2022/01/02 08:53:23;;;;;;;26.03;9.17;;;;;5.10;96610.00;;;;8307785;28;20265;-76
2022/01/02 08:57:26;;;;;;;19.73;7.60;;;;;5.30;96604.00;;;;8316321;28;20243;-74
2022/01/02 09:01:29;;;;;;;24.07;8.80;;;;;5.60;96603.00;;;;8311597;28;20647;-77
2022/01/02 09:05:32;;;;;;;19.03;7.87;;;;;5.80;96603.00;;;;8305267;28;20276;-77
2022/01/02 09:09:37;;;;;;;22.63;8.63;;;;;6.00;96604.00;;;;8306384;28;20232;-74
2022/01/02 09:13:40;;;;;;;25.17;9.33;;;;;6.20;96609.00;;;;8313533;28;20293;-76
2022/01/02 09:17:44;;;;;;;22.53;8.50;;;;;6.50;96601.00;;;;8314261;28;20275;-76
2022/01/02 09:21:47;;;;;;;22.80;8.50;;;;;6.80;96613.00;;;;8306430;28;20229;-77
2022/01/02 09:25:51;;;;;;;24.17;9.50;;;;;6.90;96602.00;;;;8307094;28;20233;-75
2022/01/02 09:29:55;;;;;;;19.97;8.20;;;;;7.10;96602.00;;;;8315378;28;20312;-74
2022/01/02 09:33:58;;;;;;;21.10;7.57;;;;;7.20;96595.00;;;;8309494;28;20868;-75
2022/01/02 09:38:01;;;;;;;19.73;7.40;;;;;7.20;96589.00;;;;8315414;28;20233;-74
2022/01/02 09:42:06;;;;;;;20.90;8.07;;;;;7.30;96570.00;;;;8317497;28;20233;-74
2022/01/02 09:46:09;;;;;;;23.23;7.97;;;;;7.30;96573.00;;;;8311715;28;20666;-74
2022/01/02 09:50:12;;;;;;;22.13;8.23;;;;;7.50;96561.00;;;;8316972;28;20229;-73
2022/01/02 09:54:16;;;;;;;20.93;8.33;;;;;7.70;96560.00;;;;8314561;28;20655;-73
2022/01/02 09:58:20;;;;;;;17.83;7.20;;;;;7.80;96555.00;;;;8316576;28;20237;-76
2022/01/02 10:02:24;;;;;;;21.20;8.27;;;;;7.80;96548.00;;;;8312028;28;20253;-75
2022/01/02 10:06:40;;;;;;;23.17;7.53;;;;;7.70;96547.00;;;;8308508;28;20252;-76
2022/01/02 10:10:47;;;;;;;19.40;7.80;;;;;7.80;96552.00;;;;8317805;28;20226;-76
2022/01/02 10:15:18;;;;;;;19.13;7.57;;;;;8.00;96552.00;;;;8316362;28;20318;-74
2022/01/02 10:19:26;;;;;;;23.00;7.83;;;;;8.30;96536.00;;;;8308143;28;20304;-74
2022/01/02 10:23:30;;;;;;;18.13;7.97;;;;;8.60;96526.00;;;;8309833;28;20229;-73
2022/01/02 10:27:33;;;;;;;27.33;8.63;;;;;8.80;96517.00;;;;8316030;28;20891;-75
2022/01/02 10:31:38;;;;;;;22.20;8.20;;;;;9.00;96534.00;;;;8300261;28;20299;-75
2022/01/02 10:35:41;;;;;;;18.73;7.30;;;;;9.00;96540.00;;;;8312978;28;20229;-74
2022/01/02 10:39:44;;;;;;;18.15;7.45;;;;;8.90;96542.00;;;;8312271;28;21130;-74
2022/01/02 10:43:48;;;;;;;22.15;7.57;;;;;8.90;96541.00;;;;8314899;28;20591;-76
2022/01/02 10:47:53;;;;;;;17.02;7.32;;;;;8.90;96517.00;;;;8313200;28;20312;-74
2022/01/02 10:52:17;;;;;;;17.07;7.37;;;;;9.00;96507.00;;;;8312536;28;20237;-74
2022/01/02 10:56:23;;;;;;;23.17;8.27;;;;;9.20;96510.00;;;;8315127;28;20229;-75
2022/01/02 11:00:31;;;;;;;19.73;7.63;;;;;9.40;96506.00;;;;8314865;28;20244;-76
2022/01/02 11:04:36;;;;;;;15.48;7.03;;;;;9.40;96499.00;;;;8303656;28;20243;-76
2022/01/02 11:08:45;;;;;;;15.53;6.90;;;;;9.50;96488.00;;;;8311270;28;20307;-76
2022/01/02 11:12:49;;;;;;;16.50;6.55;;;;;9.50;96488.00;;;;8314091;28;20229;-76
2022/01/02 11:16:53;;;;;;;17.23;6.75;;;;;9.60;96502.00;;;;8308772;28;20340;-77
2022/01/02 11:20:57;;;;;;;16.35;6.53;;;;;9.70;96495.00;;;;8325874;28;20256;-77
2022/01/02 11:25:06;;;;;;;9.75;5.88;;;;;9.90;96493.00;;;;8304016;28;20699;-78
2022/01/02 11:29:09;;;;;;;12.77;6.72;;;;;10.10;96489.00;;;;8314358;28;20766;-77
2022/01/02 11:33:14;;;;;;;12.05;6.63;;;;;10.40;96478.00;;;;8306479;28;20317;-77
2022/01/02 11:37:24;;;;;;;11.05;6.25;;;;;10.60;96478.00;;;;8313562;28;20751;-77
2022/01/02 11:41:52;;;;;;;10.98;5.90;;;;;10.70;96464.00;;;;8307008;28;20271;-77
2022/01/02 11:45:56;;;;;;;12.35;6.28;;;;;10.80;96460.00;;;;8291745;28;20225;-77
2022/01/02 11:49:59;;;;;;;10.98;5.90;;;;;10.80;96460.00;;;;8315149;28;20259;-77
2022/01/02 11:54:03;;;;;;;10.23;5.80;;;;;10.80;96458.00;;;;8309708;28;20264;-77
2022/01/02 11:58:07;;;;;;;11.88;5.50;;;;;10.80;96439.00;;;;8314003;28;20770;-77
2022/01/02 12:02:31;;;;;;;10.82;6.38;;;;;10.80;96433.00;;;;8311648;28;20271;-77
2022/01/02 12:06:36;;;;;;;11.57;6.05;;;;;10.80;96437.00;;;;8295429;28;20245;-77
2022/01/02 12:10:44;;;;;;;14.73;6.70;;;;;10.90;96442.00;;;;8315324;28;20260;-77
2022/01/02 12:14:54;;;;;;;16.63;7.93;;;;;11.00;96458.00;;;;8314729;28;20225;-77
2022/01/02 12:18:58;;;;;;;19.40;7.78;;;;;11.00;96456.00;;;;8324739;28;20651;-77
2022/01/02 12:23:01;;;;;;;15.27;6.88;;;;;11.00;96457.00;;;;8314194;28;20302;-77
2022/01/02 12:27:11;;;;;;;15.90;8.43;;;;;11.00;96439.00;;;;8314495;28;20308;-76
2022/01/02 12:31:16;;;;;;;16.10;6.53;;;;;11.00;96429.00;;;;8313731;28;20224;-77
2022/01/02 12:35:19;;;;;;;12.82;6.30;;;;;11.10;96418.00;;;;8303540;28;20234;-76
2022/01/02 12:39:27;;;;;;;17.83;7.20;;;;;11.00;96427.00;;;;8310212;28;20262;-77
2022/01/02 12:43:31;;;;;;;11.98;6.45;;;;;10.90;96408.00;;;;8313731;28;20340;-77
2022/01/02 12:47:34;;;;;;;13.93;6.50;;;;;10.80;96403.00;;;;8315497;28;20250;-77
2022/01/02 12:51:40;;;;;;;12.60;5.63;;;;;10.80;96389.00;;;;8314768;28;20300;-77
2022/01/02 12:55:43;;;;;;;9.73;5.40;;;;;10.70;96400.00;;;;8289758;28;20332;-77
2022/01/02 12:59:48;;;;;;;10.80;5.65;;;;;10.80;96403.00;;;;8298953;28;20234;-78
2022/01/02 13:03:52;;;;;;;12.48;5.80;;;;;10.80;96403.00;;;;8307873;28;20308;-78
2022/01/02 13:08:01;;;;;;;12.95;5.90;;;;;10.70;96394.00;;;;8310879;28;20229;-79
2022/01/02 13:12:09;;;;;;;14.13;6.90;;;;;10.80;96398.00;;;;8308948;28;20264;-79
2022/01/02 13:16:14;;;;;;;12.00;5.85;;;;;10.80;96400.00;;;;8304982;28;20263;-79
2022/01/02 13:20:19;;;;;;;9.63;5.63;;;;;10.70;96418.00;;;;8315404;28;20221;-79
2022/01/02 13:24:23;;;;;;;14.07;5.70;;;;;10.60;96433.00;;;;8309779;28;20229;-78
2022/01/02 13:28:28;;;;;;;10.20;5.65;;;;;10.60;96423.00;;;;8310267;28;20240;-79
2022/01/02 13:32:39;;;;;;;9.18;5.25;;;;;10.60;96396.00;;;;8307816;28;20746;-78
2022/01/02 13:36:55;;;;;;;12.38;6.00;;;;;10.50;96380.00;;;;8303936;28;20256;-79
2022/01/02 13:41:10;;;;;;;11.88;6.07;;;;;10.50;96375.00;;;;8305386;28;20249;-80
2022/01/02 13:45:16;;;;;;;29.05;17.33;;;;;10.60;96363.00;;;;8300371;28;20248;-80
2022/01/02 13:49:48;;;;;;;66.47;45.42;;;;;10.60;96365.00;;;;8298559;28;20560;-80
2022/01/02 13:53:51;;;;;;;193.80;151.23;;;;;10.60;96363.00;;;;8302791;28;20308;-80
2022/01/02 13:57:54;;;;;;;479.48;328.70;;;;;10.60;96366.00;;;;8304399;28;21067;-80
2022/01/02 14:01:58;;;;;;;830.22;513.78;;;;;10.70;96367.00;;;;8302227;28;20710;-79
2022/01/02 14:06:05;;;;;;;42.03;29.55;;;;;10.70;96365.00;;;;8289600;28;20225;-82
2022/01/02 14:10:09;;;;;;;19.58;13.57;;;;;10.70;96353.00;;;;8309767;28;20313;-83
2022/01/02 14:14:17;;;;;;;62.13;55.08;;;;;10.70;96324.00;;;;8302760;28;20719;-82
2022/01/02 14:18:28;;;;;;;15.15;10.23;;;;;10.80;96317.00;;;;8305512;28;20323;-82
2022/01/02 14:22:36;;;;;;;37.83;33.80;;;;;10.80;96314.00;;;;8305342;28;20255;-83
2022/01/02 14:26:39;;;;;;;55.03;49.75;;;;;10.90;96314.00;;;;8297953;28;20260;-81
2022/01/02 14:30:42;;;;;;;26.05;20.75;;;;;10.90;96319.00;;;;8309723;28;20311;-82
2022/01/02 14:34:47;;;;;;;30.25;26.98;;;;;11.00;96307.00;;;;8307553;28;20748;-80
2022/01/02 14:38:52;;;;;;;25.30;19.50;;;;;11.00;96311.00;;;;8301552;28;20246;-82
2022/01/02 14:42:56;;;;;;;100.55;89.53;;;;;11.00;96331.00;;;;8314650;28;20217;-82
2022/01/02 14:46:59;;;;;;;113.38;98.10;;;;;11.00;96347.00;;;;8313278;28;20307;-81
2022/01/02 14:51:02;;;;;;;24.20;18.42;;;;;10.90;96348.00;;;;8313263;28;20236;-80
2022/01/02 14:55:10;;;;;;;17.40;13.88;;;;;10.80;96336.00;;;;8318674;28;20249;-82
2022/01/02 14:59:14;;;;;;;14.15;9.05;;;;;10.80;96328.00;;;;8314986;28;20265;-82
2022/01/02 15:03:17;;;;;;;12.70;8.38;;;;;10.80;96329.00;;;;8309780;28;20464;-81
2022/01/02 15:07:20;;;;;;;7.13;5.45;;;;;10.80;96322.00;;;;8312184;28;20357;-80
2022/01/02 15:11:25;;;;;;;9.93;6.55;;;;;10.90;96322.00;;;;8305420;28;20701;-80
2022/01/02 15:15:29;;;;;;;10.00;6.85;;;;;10.80;96313.00;;;;8304148;28;20233;-82
2022/01/02 15:19:32;;;;;;;9.95;5.10;;;;;10.80;96312.00;;;;8307926;28;20257;-82
2022/01/02 15:23:36;;;;;;;8.18;5.45;;;;;10.70;96313.00;;;;8311831;28;20275;-82
2022/01/02 15:27:41;;;;;;;9.25;5.00;;;;;10.60;96301.00;;;;8314619;28;20326;-83
2022/01/02 15:31:44;;;;;;;8.05;5.00;;;;;10.60;96304.00;;;;8302306;28;20608;-81
2022/01/02 15:35:47;;;;;;;10.27;5.45;;;;;10.40;96299.00;;;;8303473;28;20271;-83
2022/01/02 15:39:50;;;;;;;11.32;6.72;;;;;10.20;96287.00;;;;8302740;28;20660;-82
2022/01/02 15:43:55;;;;;;;9.25;5.25;;;;;10.00;96299.00;;;;8291359;28;20575;-78
2022/01/02 15:47:58;;;;;;;9.05;5.18;;;;;9.80;96299.00;;;;8296249;28;21070;-78
2022/01/02 15:52:01;;;;;;;9.05;5.53;;;;;9.60;96286.00;;;;8305176;28;20305;-78
2022/01/02 15:56:05;;;;;;;6.95;4.85;;;;;9.40;96289.00;;;;8296084;28;20236;-77
2022/01/02 16:00:12;;;;;;;9.32;4.70;;;;;9.30;96306.00;;;;8302117;28;20352;-77
2022/01/02 16:04:16;;;;;;;7.88;5.22;;;;;9.10;96301.00;;;;8302821;28;21029;-78
2022/01/02 16:08:19;;;;;;;8.02;4.90;;;;;8.90;96299.00;;;;8300036;28;20222;-78
2022/01/02 16:12:23;;;;;;;9.87;5.13;;;;;8.80;96291.00;;;;8304366;28;20233;-78
2022/01/02 16:16:27;;;;;;;103.47;39.83;;;;;8.70;96294.00;;;;8304590;28;20227;-77
2022/01/02 16:20:30;;;;;;;10.63;6.32;;;;;8.70;96299.00;;;;8310065;28;20359;-79
2022/01/02 16:24:34;;;;;;;11.17;5.53;;;;;8.60;96295.00;;;;8299250;28;20242;-78
2022/01/02 16:28:37;;;;;;;9.48;5.55;;;;;8.60;96305.00;;;;8302556;28;20224;-78
2022/01/02 16:32:42;;;;;;;35.73;16.30;;;;;8.60;96315.00;;;;8302249;28;20312;-78
2022/01/02 16:36:45;;;;;;;311.77;126.03;;;;;8.80;96309.00;;;;8304827;28;20260;-77
2022/01/02 16:40:49;;;;;;;228.80;83.10;;;;;9.30;96317.00;;;;8303028;28;20275;-77
2022/01/02 16:44:52;;;;;;;176.13;66.00;;;;;9.80;96311.00;;;;8298513;28;20239;-76
2022/01/02 16:48:57;;;;;;;621.63;186.85;;;;;10.10;96319.00;;;;8299470;28;20207;-77
2022/01/02 16:58:34;;;;;;;27.90;15.35;;;;;10.20;96311.00;;;;8332337;28;20249;-78
2022/01/02 17:02:37;;;;;;;25.00;14.98;;;;;10.20;96304.00;;;;8331879;28;20225;-80
2022/01/02 17:07:16;;;;;;;16.25;12.02;;;;;10.30;96299.00;;;;8331433;28;20229;-79
2022/01/02 17:11:52;;;;;;;7.53;6.07;;;;;10.40;96297.00;;;;8332693;28;20685;-81
2022/01/02 17:16:29;;;;;;;5.50;4.38;;;;;10.50;96306.00;;;;8331779;28;20320;-80
2022/01/02 17:21:06;;;;;;;4.95;2.97;;;;;10.40;96308.00;;;;8330598;28;20229;-80
2022/01/02 17:25:40;;;;;;;4.72;3.25;;;;;10.40;96302.00;;;;8332370;28;20259;-80
2022/01/02 17:30:13;;;;;;;4.97;3.28;;;;;10.30;96311.00;;;;8331427;28;20252;-80
2022/01/02 17:34:48;;;;;;;3.10;2.80;;;;;10.30;96310.00;;;;8330926;28;20229;-80
2022/01/02 17:39:25;;;;;;;3.10;2.78;;;;;10.30;96308.00;;;;8332127;28;20228;-80
2022/01/02 17:44:00;;;;;;;4.38;2.63;;;;;10.30;96302.00;;;;8331010;28;20631;-82
2022/01/02 17:48:34;;;;;;;6.32;3.13;;;;;10.30;96317.00;;;;8331137;28;20228;-81
2022/01/02 17:53:11;;;;;;;4.22;3.35;;;;;10.10;96301.00;;;;8331605;28;20218;-80
2022/01/02 17:57:45;;;;;;;4.70;3.30;;;;;10.00;96302.00;;;;8331129;28;20217;-79
2022/01/02 18:02:21;;;;;;;5.95;3.33;;;;;9.90;96299.00;;;;8330186;28;20287;-79
2022/01/02 18:06:58;;;;;;;6.43;2.83;;;;;9.80;96304.00;;;;8330664;28;20613;-81
2022/01/02 18:11:39;;;;;;;3.70;3.05;;;;;9.70;96303.00;;;;8327998;28;20217;-79
2022/01/02 18:16:13;;;;;;;3.35;2.78;;;;;9.70;96306.00;;;;8328634;28;20550;-79
2022/01/02 18:20:49;;;;;;;3.33;2.90;;;;;9.70;96302.00;;;;8329835;28;20231;-77
2022/01/02 18:25:26;;;;;;;2.63;2.42;;;;;9.70;96312.00;;;;8330221;28;20604;-82
2022/01/02 18:30:07;;;;;;;4.55;2.83;;;;;9.70;96310.00;;;;8328924;28;20558;-79
2022/01/02 18:34:39;;;;;;;5.88;3.03;;;;;9.70;96329.00;;;;8328053;28;20226;-80
2022/01/02 18:39:16;;;;;;;3.92;2.50;;;;;9.70;96333.00;;;;8329472;28;20225;-81
2022/01/02 18:43:53;;;;;;;5.82;3.03;;;;;9.70;96336.00;;;;8328455;28;20241;-80
2022/01/02 18:48:31;;;;;;;3.27;2.50;;;;;9.70;96352.00;;;;8328257;28;20655;-82
2022/01/02 18:53:05;;;;;;;6.72;2.80;;;;;9.60;96355.00;;;;8328069;28;20228;-84
2022/01/02 18:57:42;;;;;;;3.10;2.50;;;;;9.50;96365.00;;;;8328409;28;20265;-83
2022/01/02 19:02:23;;;;;;;4.22;2.90;;;;;9.40;96347.00;;;;8328319;28;20685;-80
2022/01/02 19:06:57;;;;;;;4.95;3.00;;;;;9.20;96350.00;;;;8329141;28;20244;-82
2022/01/02 19:11:35;;;;;;;4.38;3.30;;;;;9.10;96348.00;;;;8327957;28;20217;-84
2022/01/02 19:16:10;;;;;;;5.97;3.20;;;;;9.00;96346.00;;;;8328438;28;20682;-83
2022/01/02 19:20:44;;;;;;;4.17;2.97;;;;;8.70;96353.00;;;;8328568;28;20288;-81
2022/01/02 19:25:22;;;;;;;3.63;2.85;;;;;8.80;96348.00;;;;8326322;28;20228;-84
2022/01/02 19:30:00;;;;;;;4.63;2.93;;;;;8.90;96348.00;;;;8327931;28;20558;-84
2022/01/02 19:34:34;;;;;;;5.37;3.20;;;;;9.10;96350.00;;;;8328835;28;20613;-85
2022/01/02 19:39:11;;;;;;;6.22;3.10;;;;;9.30;96344.00;;;;8326763;28;20256;-85
2022/01/02 19:43:48;;;;;;;7.90;3.30;;;;;9.40;96328.00;;;;8327673;28;20662;-87
2022/01/02 19:48:19;;;;;;;13.48;4.88;;;;;9.60;96330.00;;;;8328455;28;20237;-83
2022/01/02 19:52:54;;;;;;;428.42;165.32;;;;;9.60;96335.00;;;;8327656;28;20249;-83
2022/01/02 19:57:30;;;;;;;34.63;14.23;;;;;9.70;96330.00;;;;8326883;28;20225;-83
2022/01/02 20:02:04;;;;;;;32.15;13.15;;;;;9.70;96342.00;;;;8327864;28;20322;-84
2022/01/02 20:11:40;;;;;;;35.60;13.32;;;;;9.70;96335.00;;;;8326610;28;20240;-82
2022/01/02 20:16:15;;;;;;;357.83;161.68;;;;;9.70;96352.00;;;;8327209;28;20220;-83
2022/01/02 20:20:49;;;;;;;154.07;58.17;;;;;9.70;96360.00;;;;8327185;28;20691;-84
2022/01/02 20:25:29;;;;;;;27.60;14.82;;;;;9.70;96356.00;;;;8327195;28;20225;-84
2022/01/02 20:30:09;;;;;;;9.45;6.65;;;;;9.70;96357.00;;;;8326523;28;20241;-83
2022/01/02 20:34:43;;;;;;;21.65;12.85;;;;;9.80;96361.00;;;;8332452;28;20217;-83
2022/01/02 20:39:20;;;;;;;14.27;9.38;;;;;9.90;96364.00;;;;8332593;28;20221;-85
2022/01/02 20:43:57;;;;;;;219.80;102.63;;;;;9.90;96349.00;;;;8333737;28;20221;-82
2022/01/02 20:48:35;;;;;;;9.80;7.32;;;;;10.00;96348.00;;;;8332907;28;20267;-84
2022/01/02 20:53:09;;;;;;;7.13;4.85;;;;;10.00;96349.00;;;;8332711;28;20220;-84
2022/01/02 20:57:47;;;;;;;30.57;14.63;;;;;10.00;96343.00;;;;8332106;28;20625;-84